createdAt,value
2019-02-25T00:00:08.768Z,77.90
2019-02-25T00:02:40.533Z,78.70
2019-02-25T00:05:12.628Z,79.50
2019-02-25T00:07:44.245Z,78.80
2019-02-25T00:10:15.195Z,78.40
2019-02-25T00:12:46.543Z,78.50
2019-02-25T00:15:50.474Z,77.30
2019-02-25T00:18:22.802Z,77.50
2019-02-25T00:21:14.144Z,78.70
2019-02-25T00:23:45.174Z,78.60
2019-02-25T00:26:17.208Z,78.60
2019-02-25T00:28:48.893Z,78.90
2019-02-25T00:31:20.242Z,78.90
2019-02-25T00:33:52.711Z,79.00
2019-02-25T00:36:25.822Z,78.30
2019-02-25T00:38:57.480Z,78.80
2019-02-25T00:41:29.438Z,79.70
2019-02-25T00:44:00.753Z,79.80
2019-02-25T00:46:32.480Z,79.80
2019-02-25T00:49:03.152Z,80.20
2019-02-25T00:51:34.563Z,80.50
2019-02-25T00:54:05.950Z,80.40
2019-02-25T00:56:37.809Z,80.60
2019-02-25T00:59:09.140Z,79.90
2019-02-25T01:02:05.769Z,80.40
2019-02-25T01:04:37.133Z,80.30
2019-02-25T01:07:09.453Z,80.70
2019-02-25T01:09:40.256Z,80.70
2019-02-25T01:12:13.449Z,80.10
2019-02-25T01:14:45.319Z,79.80
2019-02-25T01:17:16.699Z,80.40
2019-02-25T01:19:48.451Z,79.90
2019-02-25T01:22:19.178Z,79.80
2019-02-25T01:24:49.776Z,79.50
2019-02-25T01:27:20.093Z,79.50
2019-02-25T01:29:51.280Z,79.70
2019-02-25T01:32:46.041Z,80.60
2019-02-25T01:35:17.651Z,80.90
2019-02-25T01:37:50.656Z,79.70
2019-02-25T01:40:21.988Z,80.00
2019-02-25T01:42:53.248Z,80.10
2019-02-25T01:45:24.773Z,80.90
2019-02-25T01:48:05.099Z,80.50
2019-02-25T01:50:36.153Z,79.80
2019-02-25T01:53:07.360Z,79.60
2019-02-25T01:55:38.447Z,79.50
2019-02-25T01:58:24.032Z,79.80
2019-02-25T02:00:54.807Z,79.60
2019-02-25T03:01:53.490Z,82.70
2019-02-25T03:04:23.829Z,84.00
2019-02-25T03:06:55.584Z,84.20
2019-02-25T03:09:37.394Z,84.20
2019-02-25T03:12:08.955Z,84.20
2019-02-25T03:14:40.292Z,84.10
2019-02-25T03:17:11.443Z,84.10
2019-02-25T03:19:42.518Z,84.00
2019-02-25T03:22:14.650Z,84.20
2019-02-25T03:24:46.175Z,84.20
2019-02-25T03:27:17.840Z,84.10
2019-02-25T03:29:49.442Z,83.90
2019-02-25T03:32:26.796Z,83.60
2019-02-25T03:34:58.407Z,84.20
2019-02-25T03:37:30.562Z,84.10
2019-02-25T03:40:01.942Z,84.50
2019-02-25T03:42:33.594Z,85.10
2019-02-25T03:45:04.215Z,85.10
2019-02-25T03:47:36.015Z,85.00
2019-02-25T03:50:07.431Z,84.80
2019-02-25T03:52:38.658Z,85.10
2019-02-25T03:55:13.048Z,85.80
2019-02-25T03:57:44.575Z,86.00
2019-02-25T04:00:23.201Z,86.50
2019-02-25T04:02:54.532Z,86.80
2019-02-25T04:05:26.099Z,86.40
2019-02-25T04:07:58.393Z,87.00
2019-02-25T04:10:29.574Z,86.70
2019-02-25T04:13:01.406Z,86.40
2019-02-25T04:15:38.464Z,87.60
2019-02-25T04:18:16.247Z,88.50
2019-02-25T04:20:47.392Z,88.60
2019-02-25T04:23:18.449Z,88.20
2019-02-25T04:25:50.255Z,88.40
2019-02-25T04:28:23.129Z,88.20
2019-02-25T04:30:54.487Z,88.90
2019-02-25T04:33:25.487Z,88.90
2019-02-25T04:35:56.397Z,89.30
2019-02-25T04:38:27.410Z,89.40
2019-02-25T04:40:58.356Z,89.70
2019-02-25T04:43:30.210Z,89.00
2019-02-25T04:46:01.546Z,89.10
2019-02-25T04:48:33.587Z,89.10
2019-02-25T04:51:05.066Z,89.10
2019-02-25T04:53:36.089Z,89.20
2019-02-25T04:56:07.720Z,89.30
2019-02-25T04:58:40.550Z,89.20
2019-02-25T05:01:12.017Z,89.10
2019-02-25T05:03:44.907Z,89.00
2019-02-25T05:06:16.941Z,89.00
2019-02-25T05:08:48.950Z,90.10
2019-02-25T05:11:32.829Z,90.50
2019-02-25T05:14:04.135Z,90.70
2019-02-25T05:16:35.872Z,90.10
2019-02-25T05:19:06.548Z,90.20
2019-02-25T05:21:38.564Z,90.80
2019-02-25T05:24:09.876Z,90.80
2019-02-25T05:26:41.187Z,90.70
2019-02-25T05:29:12.514Z,91.00
2019-02-25T05:31:43.787Z,91.10
2019-02-25T05:34:15.508Z,91.50
2019-02-25T05:36:47.789Z,91.60
2019-02-25T05:39:19.278Z,91.50
2019-02-25T05:41:49.987Z,91.60
2019-02-25T05:44:21.705Z,91.70
2019-02-25T05:46:52.721Z,91.70
2019-02-25T05:49:24.379Z,91.80
2019-02-25T05:51:55.395Z,91.70
2019-02-25T05:54:27.031Z,91.40
2019-02-25T05:56:57.773Z,91.30
2019-02-25T05:59:29.430Z,91.40
2019-02-25T06:02:00.414Z,91.40
2019-02-25T06:04:31.275Z,91.50
2019-02-25T06:07:02.639Z,91.70
2019-02-25T06:09:34.039Z,92.10
2019-02-25T06:12:05.477Z,92.10
2019-02-25T06:14:37.145Z,92.00
2019-02-25T06:17:46.339Z,92.10
2019-02-25T06:20:16.955Z,92.30
2019-02-25T06:22:49.413Z,92.40
2019-02-25T06:25:20.035Z,92.40
2019-02-25T06:27:51.426Z,92.30
2019-02-25T06:30:25.725Z,92.30
2019-02-25T06:33:09.998Z,92.20
2019-02-25T06:35:41.429Z,92.30
2019-02-25T06:38:12.485Z,92.40
2019-02-25T06:40:57.331Z,92.80
2019-02-25T06:43:35.047Z,93.30
2019-02-25T06:46:09.055Z,94.10
2019-02-25T06:48:40.696Z,93.50
2019-02-25T06:51:11.879Z,93.30
2019-02-25T06:53:57.701Z,90.80
2019-02-25T06:56:29.167Z,89.70
2019-02-25T06:59:00.466Z,84.00
2019-02-25T07:01:31.444Z,79.30
2019-02-25T07:04:20.673Z,74.90
2019-02-25T07:07:13.444Z,71.80
2019-02-25T07:10:12.630Z,66.30
2019-02-25T07:13:00.002Z,65.90
2019-02-25T07:15:52.473Z,62.60
2019-02-25T07:18:44.723Z,59.20
2019-02-25T07:21:29.922Z,57.10
2019-02-25T07:24:18.196Z,54.60
2019-02-25T07:27:18.117Z,54.90
2019-02-25T07:30:17.219Z,54.40
2019-02-25T07:33:13.033Z,52.70
2019-02-25T07:36:06.699Z,52.90
2019-02-25T07:38:57.016Z,49.50
2019-02-25T07:42:03.253Z,52.10
2019-02-25T07:44:53.789Z,50.80
2019-02-25T07:47:43.461Z,49.90
2019-02-25T07:50:33.857Z,49.20
2019-02-25T07:53:18.601Z,48.20
2019-02-25T07:56:07.783Z,48.80
2019-02-25T07:58:49.165Z,48.60
2019-02-25T08:01:29.212Z,48.50
2019-02-25T08:04:24.634Z,49.10
2019-02-25T08:07:17.415Z,49.50
2019-02-25T08:09:59.510Z,50.20
2019-02-25T08:12:38.400Z,51.60
2019-02-25T08:15:15.896Z,53.20
2019-02-25T08:18:03.752Z,55.20
2019-02-25T08:20:57.146Z,56.10
2019-02-25T08:23:58.963Z,56.20
2019-02-25T08:26:47.537Z,56.80
2019-02-25T08:29:29.737Z,56.60
2019-02-25T08:32:18.766Z,57.60
2019-02-25T08:35:11.291Z,60.80
2019-02-25T08:38:15.747Z,59.90
2019-02-25T08:41:16.965Z,58.20
2019-02-25T08:44:18.599Z,56.70
2019-02-25T08:47:09.620Z,56.40
2019-02-25T08:49:45.309Z,52.80
2019-02-25T08:52:16.359Z,51.50
2019-02-25T08:54:47.410Z,50.60
2019-02-25T08:57:18.831Z,50.30
2019-02-25T08:59:50.304Z,50.00
2019-02-25T09:02:21.975Z,48.90
2019-02-25T09:04:53.564Z,49.00
2019-02-25T09:07:24.842Z,49.00
2019-02-25T09:09:56.512Z,49.00
2019-02-25T09:12:28.218Z,48.90
2019-02-25T09:14:59.238Z,49.30
2019-02-25T09:17:30.259Z,49.60
2019-02-25T09:20:01.545Z,49.20
2019-02-25T09:22:33.982Z,47.80
2019-02-25T09:25:04.881Z,48.80
2019-02-25T09:27:35.952Z,49.00
2019-02-25T09:30:10.241Z,49.70
2019-02-25T09:32:41.047Z,48.80
2019-02-25T09:35:12.449Z,47.80
2019-02-25T09:37:43.608Z,47.40
2019-02-25T09:40:16.378Z,48.20
2019-02-25T09:42:47.413Z,46.80
2019-02-25T09:45:17.752Z,45.90
2019-02-25T09:47:49.320Z,45.30
2019-02-25T09:50:21.165Z,44.40
2019-02-25T09:52:51.848Z,44.20
2019-02-25T09:55:23.645Z,43.90
2019-02-25T09:57:55.193Z,43.70
2019-02-25T10:00:26.230Z,43.70
2019-02-25T10:02:57.565Z,43.00
2019-02-25T10:05:29.098Z,42.80
2019-02-25T10:08:00.819Z,43.40
2019-02-25T10:10:51.603Z,44.20
2019-02-25T10:13:23.046Z,44.30
2019-02-25T10:15:54.782Z,44.50
2019-02-25T10:18:25.678Z,44.60
2019-02-25T10:20:57.078Z,44.10
2019-02-25T10:23:28.407Z,44.30
2019-02-25T10:25:59.897Z,45.20
2019-02-25T10:28:31.021Z,45.70
2019-02-25T10:31:02.090Z,45.40
2019-02-25T10:33:33.424Z,45.80
2019-02-25T10:36:03.726Z,46.20
2019-02-25T10:38:37.459Z,45.60
2019-02-25T10:41:08.583Z,45.60
2019-02-25T10:43:39.834Z,45.00
2019-02-25T10:46:13.355Z,45.50
2019-02-25T10:49:56.629Z,45.10
2019-02-25T10:52:28.215Z,44.80
2019-02-25T10:55:00.268Z,45.00
2019-02-25T10:57:32.122Z,45.20
2019-02-25T11:00:04.963Z,45.30
2019-02-25T11:02:43.977Z,45.50
2019-02-25T11:05:09.919Z,45.50
2019-02-25T11:07:42.118Z,44.70
2019-02-25T11:10:40.647Z,44.60
2019-02-25T11:13:12.186Z,45.30
2019-02-25T11:15:44.563Z,44.20
2019-02-25T11:18:19.165Z,43.30
2019-02-25T11:20:50.060Z,44.10
2019-02-25T11:23:21.643Z,44.00
2019-02-25T11:25:55.777Z,45.00
2019-02-25T11:28:27.387Z,45.40
2019-02-25T11:30:58.872Z,45.40
2019-02-25T11:33:32.583Z,45.60
2019-02-25T11:36:03.620Z,44.80
2019-02-25T11:38:43.078Z,43.80
2019-02-25T11:41:14.803Z,43.80
2019-02-25T11:43:48.224Z,42.90
2019-02-25T11:46:19.415Z,43.00
2019-02-25T11:48:51.101Z,42.20
2019-02-25T11:51:22.844Z,42.10
2019-02-25T11:53:54.608Z,42.70
2019-02-25T11:56:25.796Z,41.80
2019-02-25T11:58:57.444Z,41.60
2019-02-25T12:01:28.751Z,41.70
2019-02-25T12:04:00.032Z,41.30
2019-02-25T12:06:31.692Z,41.70
2019-02-25T12:09:03.485Z,41.10
2019-02-25T12:11:34.488Z,41.00
2019-02-25T12:14:05.265Z,40.30
2019-02-25T12:16:36.652Z,41.00
2019-02-25T12:19:17.583Z,40.40
2019-02-25T12:21:42.319Z,41.00
2019-02-25T12:24:13.793Z,40.00
2019-02-25T12:26:45.147Z,39.10
2019-02-25T12:29:16.578Z,38.30
2019-02-25T12:31:47.636Z,39.40
2019-02-25T12:34:18.737Z,39.00
2019-02-25T12:37:27.542Z,39.30
2019-02-25T12:39:59.580Z,39.40
2019-02-25T12:42:31.219Z,38.90
2019-02-25T12:45:02.507Z,38.30
2019-02-25T12:47:34.498Z,37.40
2019-02-25T12:50:06.327Z,37.70
2019-02-25T12:52:37.974Z,37.70
2019-02-25T12:55:12.443Z,37.20
2019-02-25T12:57:43.921Z,37.00
2019-02-25T13:00:15.322Z,37.00
2019-02-25T13:02:59.917Z,37.00
2019-02-25T13:05:32.403Z,37.40
2019-02-25T13:08:03.843Z,37.20
2019-02-25T13:10:34.992Z,36.60
2019-02-25T13:13:06.331Z,36.20
2019-02-25T13:15:37.296Z,35.00
2019-02-25T13:18:08.615Z,34.80
2019-02-25T13:20:39.652Z,35.30
2019-02-25T13:23:11.109Z,35.30
2019-02-25T13:25:42.846Z,34.40
2019-02-25T13:28:15.357Z,34.00
2019-02-25T13:30:46.337Z,34.20
2019-02-25T13:33:25.934Z,35.30
2019-02-25T13:35:57.569Z,34.80
2019-02-25T13:38:29.338Z,34.30
2019-02-25T13:41:01.132Z,35.20
2019-02-25T13:43:33.176Z,35.20
2019-02-25T13:46:04.206Z,35.90
2019-02-25T13:48:35.263Z,35.70
2019-02-25T13:51:06.593Z,35.80
2019-02-25T13:53:37.730Z,36.40
2019-02-25T13:56:09.585Z,36.20
2019-02-25T13:58:41.582Z,35.90
2019-02-25T14:01:15.201Z,34.70
2019-02-25T14:03:46.966Z,32.80
2019-02-25T14:06:17.608Z,33.50
2019-02-25T14:08:49.256Z,33.30
2019-02-25T14:11:20.845Z,34.50
2019-02-25T14:13:52.490Z,32.90
2019-02-25T14:16:24.411Z,32.50
2019-02-25T14:18:55.549Z,32.50
2019-02-25T14:21:27.237Z,33.90
2019-02-25T14:23:59.836Z,35.20
2019-02-25T14:26:31.368Z,35.00
2019-02-25T14:29:02.768Z,33.70
2019-02-25T14:31:34.200Z,32.80
2019-02-25T14:34:04.868Z,33.30
2019-02-25T14:36:36.441Z,34.50
2019-02-25T14:39:24.897Z,36.30
2019-02-25T14:41:54.833Z,35.80
2019-02-25T14:44:29.804Z,36.10
2019-02-25T14:47:02.604Z,36.90
2019-02-25T14:49:35.357Z,39.10
2019-02-25T14:52:06.138Z,39.70
2019-02-25T14:54:37.917Z,39.30
2019-02-25T14:57:08.987Z,38.40
2019-02-25T14:59:40.923Z,37.20
2019-02-25T15:02:12.275Z,36.00
2019-02-25T15:04:44.264Z,36.20
2019-02-25T15:07:15.705Z,36.20
2019-02-25T15:09:48.269Z,36.00
2019-02-25T15:13:14.726Z,37.50
2019-02-25T15:15:47.575Z,37.50
2019-02-25T15:18:20.043Z,37.40
2019-02-25T15:20:51.917Z,37.90
2019-02-25T15:23:25.965Z,38.00
2019-02-25T15:26:05.166Z,38.40
2019-02-25T15:28:38.596Z,39.00
2019-02-25T15:31:12.059Z,39.80
2019-02-25T15:33:52.868Z,40.60
2019-02-25T15:36:30.474Z,40.90
2019-02-25T15:39:07.871Z,39.30
2019-02-25T15:41:40.555Z,37.50
2019-02-25T15:44:21.970Z,36.40
2019-02-25T15:46:52.862Z,35.10
2019-02-25T15:49:25.647Z,34.60
2019-02-25T15:51:57.298Z,35.50
2019-02-25T15:54:33.282Z,35.10
2019-02-25T15:57:41.072Z,34.00
2019-02-25T16:00:16.002Z,33.90
2019-02-25T16:02:55.446Z,33.50
2019-02-25T16:05:31.617Z,33.60
2019-02-25T16:08:08.546Z,32.20
2019-02-25T16:11:02.151Z,31.60
2019-02-25T16:13:33.661Z,31.60
2019-02-25T16:16:10.786Z,31.10
2019-02-25T16:18:48.463Z,30.80
2019-02-25T16:21:27.775Z,31.00
2019-02-25T16:24:02.035Z,30.80
2019-02-25T16:26:36.053Z,31.80
2019-02-25T16:29:09.108Z,32.00
2019-02-25T16:31:44.988Z,32.70
2019-02-25T16:34:18.865Z,33.60
2019-02-25T16:36:51.950Z,34.50
2019-02-25T16:39:32.928Z,35.60
2019-02-25T16:42:04.881Z,38.20
2019-02-25T16:44:36.377Z,41.20
2019-02-25T16:47:07.870Z,42.30
2019-02-25T16:49:40.711Z,44.10
2019-02-25T16:52:40.528Z,46.40
2019-02-25T16:55:28.104Z,48.40
2019-02-25T16:58:03.475Z,50.30
2019-02-25T17:00:35.439Z,51.60
2019-02-25T17:03:08.211Z,53.40
2019-02-25T17:05:40.355Z,53.70
2019-02-25T17:08:15.070Z,54.90
2019-02-25T17:10:45.817Z,56.00
2019-02-25T17:13:17.277Z,56.80
2019-02-25T17:15:48.957Z,55.90
2019-02-25T17:18:21.349Z,57.30
2019-02-25T17:20:52.802Z,58.50
2019-02-25T17:23:25.138Z,60.00
2019-02-25T17:25:58.010Z,61.20
2019-02-25T17:28:29.687Z,62.90
2019-02-25T17:31:00.770Z,63.80
2019-02-25T17:33:32.615Z,64.90
2019-02-25T17:36:06.242Z,65.90
2019-02-25T17:38:38.548Z,66.70
2019-02-25T17:41:11.249Z,67.80
2019-02-25T17:43:43.531Z,68.30
2019-02-25T17:46:14.802Z,69.40
2019-02-25T17:48:46.556Z,70.30
2019-02-25T17:51:19.101Z,71.10
2019-02-25T17:53:52.712Z,71.40
2019-02-25T17:56:26.982Z,72.20
2019-02-25T17:59:01.126Z,72.60
2019-02-25T18:01:32.754Z,73.20
2019-02-25T18:04:17.192Z,73.90
2019-02-25T18:06:50.505Z,73.90
2019-02-25T18:09:22.687Z,74.40
2019-02-25T18:11:55.213Z,74.70
2019-02-25T18:14:26.237Z,75.80
2019-02-25T18:16:57.926Z,76.40
2019-02-25T18:19:29.447Z,76.80
2019-02-25T18:22:00.194Z,77.40
2019-02-25T18:24:32.558Z,77.70
2019-02-25T18:27:06.932Z,78.30
2019-02-25T18:29:38.585Z,79.10
2019-02-25T18:32:11.851Z,79.90
2019-02-25T18:34:43.758Z,79.50
2019-02-25T18:37:18.059Z,80.10
2019-02-25T18:39:52.241Z,79.90
2019-02-25T18:42:24.529Z,79.70
2019-02-25T18:44:55.693Z,79.40
2019-02-25T18:47:27.315Z,79.20
2019-02-25T18:50:00.954Z,79.30
2019-02-25T18:52:34.195Z,79.10
2019-02-25T18:55:06.732Z,79.10
2019-02-25T18:57:39.053Z,79.60
2019-02-25T19:00:14.220Z,80.40
2019-02-25T19:02:45.183Z,81.60
2019-02-25T19:07:47.277Z,83.00
2019-02-25T19:10:22.480Z,83.60
2019-02-25T19:12:54.096Z,84.30
2019-02-25T19:15:27.840Z,84.70
2019-02-25T19:17:59.506Z,85.60
2019-02-25T19:20:34.805Z,85.90
2019-02-25T19:23:10.173Z,85.80
2019-02-25T19:25:46.011Z,85.80
2019-02-25T19:28:19.704Z,86.00
2019-02-25T19:31:08.164Z,85.60
2019-02-25T19:33:44.088Z,86.30
2019-02-25T19:36:25.647Z,86.50
2019-02-25T19:39:14.410Z,86.40
2019-02-25T19:41:47.157Z,87.30
2019-02-25T19:44:21.099Z,87.00
2019-02-25T19:47:03.162Z,87.50
2019-02-25T19:49:36.616Z,87.70
2019-02-25T19:52:07.985Z,88.30
2019-02-25T19:54:40.840Z,88.30
2019-02-25T19:57:28.414Z,87.50
2019-02-25T20:00:02.921Z,87.30
2019-02-25T20:02:40.150Z,86.80
2019-02-25T20:05:14.235Z,86.90
2019-02-25T20:07:46.928Z,86.90
2019-02-25T20:10:24.278Z,86.90
2019-02-25T20:12:56.406Z,86.80
2019-02-25T20:15:39.597Z,86.80
2019-02-25T20:18:16.191Z,86.90
2019-02-25T20:20:49.765Z,87.50
2019-02-25T20:23:22.827Z,88.50
2019-02-25T20:26:11.296Z,89.20
2019-02-25T20:28:45.229Z,87.50
2019-02-25T20:31:16.798Z,86.10
2019-02-25T20:33:47.584Z,85.30
2019-02-25T20:36:22.087Z,85.50
2019-02-25T20:38:54.210Z,85.80
2019-02-25T20:41:28.835Z,85.70
2019-02-25T20:44:05.028Z,85.50
2019-02-25T20:46:38.787Z,85.00
2019-02-25T20:49:14.189Z,86.10
2019-02-25T20:51:57.974Z,86.80
2019-02-25T20:54:29.505Z,86.50
2019-02-25T20:57:00.837Z,86.30
2019-02-25T20:59:33.137Z,86.70
2019-02-25T21:02:13.671Z,88.30
2019-02-25T21:04:43.903Z,89.10
2019-02-25T21:07:15.045Z,90.20
2019-02-25T21:09:46.396Z,90.80
2019-02-25T21:12:20.015Z,91.20
2019-02-25T21:15:03.017Z,91.10
2019-02-25T21:17:37.849Z,91.50
2019-02-25T21:20:12.694Z,91.50
2019-02-25T21:22:52.465Z,91.60
2019-02-25T21:25:26.429Z,91.80
2019-02-25T21:27:59.278Z,92.30
2019-02-25T21:30:28.591Z,92.10
2019-02-25T21:33:01.981Z,92.20
2019-02-25T21:35:36.694Z,92.40
2019-02-25T21:38:05.642Z,92.50
2019-02-25T21:40:37.339Z,93.00
2019-02-25T21:43:12.108Z,93.10
2019-02-25T21:45:46.057Z,93.20
2019-02-25T21:48:25.128Z,93.40
2019-02-25T21:51:00.098Z,93.10
2019-02-25T21:53:29.437Z,93.30
2019-02-25T21:56:10.972Z,93.70
2019-02-25T21:58:48.765Z,93.90
2019-02-25T22:01:21.158Z,93.80
2019-02-25T22:03:56.176Z,93.40
2019-02-25T22:06:31.596Z,93.40
2019-02-25T22:09:09.449Z,93.50
2019-02-25T22:11:43.521Z,93.80
2019-02-25T22:14:16.310Z,94.40
2019-02-25T22:16:50.430Z,94.70
2019-02-25T22:19:21.270Z,94.90
2019-02-25T22:21:55.671Z,95.80
2019-02-25T22:24:29.061Z,96.40
2019-02-25T22:27:00.056Z,97.20
2019-02-25T22:29:31.610Z,98.10
2019-02-25T22:32:19.924Z,99.70
2019-02-25T22:34:50.910Z,99.90
2019-02-25T22:37:24.423Z,99.90
2019-02-25T22:39:55.750Z,99.90
2019-02-25T22:42:27.432Z,99.90
2019-02-25T22:44:59.641Z,99.90
2019-02-25T22:47:30.961Z,99.90
2019-02-25T22:50:04.155Z,99.90
2019-02-25T22:52:38.102Z,99.90
2019-02-25T22:55:10.527Z,99.90
2019-02-25T22:57:53.863Z,99.90
2019-02-25T23:00:58.335Z,99.90
2019-02-25T23:03:27.969Z,99.90
2019-02-25T23:06:01.078Z,99.90
2019-02-25T23:08:32.354Z,99.90
2019-02-25T23:11:04.073Z,99.90
2019-02-25T23:13:35.298Z,99.90
2019-02-25T23:16:09.683Z,99.90
2019-02-25T23:18:42.040Z,99.90
2019-02-25T23:21:26.474Z,99.90
2019-02-25T23:24:00.485Z,99.90
2019-02-25T23:26:32.505Z,99.90
2019-02-25T23:29:03.515Z,99.90
2019-02-25T23:31:52.950Z,99.90
2019-02-25T23:34:24.866Z,99.90
2019-02-25T23:36:56.292Z,99.90
2019-02-25T23:39:27.366Z,99.90
2019-02-25T23:42:00.635Z,99.90
2019-02-25T23:44:30.695Z,99.90
2019-02-25T23:47:02.025Z,99.90
2019-02-25T23:49:36.439Z,99.90
2019-02-25T23:52:07.772Z,99.90
2019-02-25T23:54:39.085Z,99.90
2019-02-25T23:57:10.536Z,99.90
2019-02-25T23:59:44.140Z,99.90
